createdAt,value
2019-05-22T00:02:46.503Z,16.78
2019-05-22T00:05:18.109Z,16.77
2019-05-22T00:07:47.440Z,16.93
2019-05-22T00:10:22.608Z,16.69
2019-05-22T00:12:53.813Z,16.63
2019-05-22T00:15:24.386Z,16.77
2019-05-22T00:17:53.965Z,17.27
2019-05-22T00:20:24.160Z,16.78
2019-05-22T00:22:53.279Z,17.06
2019-05-22T00:25:26.036Z,16.65
2019-05-22T00:27:55.926Z,16.46
2019-05-22T00:30:26.778Z,16.62
2019-05-22T00:32:57.316Z,16.48
2019-05-22T00:35:26.505Z,16.34
2019-05-22T00:37:56.578Z,16.24
2019-05-22T00:40:28.811Z,16.59
2019-05-22T00:43:05.041Z,16.64
2019-05-22T00:45:30.552Z,16.51
2019-05-22T00:47:59.692Z,16.53
2019-05-22T00:50:32.749Z,16.44
2019-05-22T00:53:22.873Z,16.54
2019-05-22T00:56:09.866Z,16.92
2019-05-22T00:58:46.394Z,16.70
2019-05-22T01:01:23.609Z,16.47
2019-05-22T01:03:56.411Z,16.44
2019-05-22T01:06:28.950Z,16.16
2019-05-22T01:09:01.267Z,16.21
2019-05-22T01:11:31.824Z,16.40
2019-05-22T01:14:01.089Z,16.55
2019-05-22T01:16:30.547Z,16.14
2019-05-22T01:18:59.527Z,16.25
2019-05-22T01:21:30.325Z,15.86
2019-05-22T01:23:59.402Z,15.86
2019-05-22T01:26:28.894Z,15.85
2019-05-22T01:28:57.682Z,15.91
2019-05-22T01:31:30.280Z,16.05
2019-05-22T01:34:03.005Z,16.00
2019-05-22T01:36:50.348Z,15.88
2019-05-22T01:39:36.449Z,15.65
2019-05-22T01:42:10.268Z,15.81
2019-05-22T01:44:40.075Z,15.70
2019-05-22T01:47:15.953Z,15.64
2019-05-22T01:49:51.545Z,15.85
2019-05-22T01:52:22.170Z,15.59
2019-05-22T01:54:52.022Z,15.50
2019-05-22T01:57:22.849Z,15.59
2019-05-22T01:59:52.377Z,15.87
2019-05-22T02:02:23.678Z,15.72
2019-05-22T02:04:52.360Z,15.72
2019-05-22T02:07:21.247Z,15.54
2019-05-22T02:09:51.711Z,15.40
2019-05-22T02:12:40.583Z,15.51
2019-05-22T02:15:10.586Z,15.42
2019-05-22T02:17:39.179Z,15.56
2019-05-22T02:20:09.113Z,15.55
2019-05-22T02:22:39.611Z,15.64
2019-05-22T02:25:09.221Z,15.32
2019-05-22T02:27:39.463Z,15.34
2019-05-22T02:30:09.882Z,15.54
2019-05-22T02:32:40.497Z,15.31
2019-05-22T02:35:10.506Z,15.12
2019-05-22T02:37:41.175Z,15.21
2019-05-22T02:40:19.004Z,15.23
2019-05-22T02:42:48.211Z,15.05
2019-05-22T02:45:16.780Z,15.22
2019-05-22T02:47:46.276Z,15.33
2019-05-22T02:50:16.171Z,15.02
2019-05-22T02:52:44.858Z,15.24
2019-05-22T02:55:13.973Z,15.50
2019-05-22T02:57:42.939Z,15.17
2019-05-22T03:00:14.231Z,15.31
2019-05-22T03:02:50.377Z,14.97
2019-05-22T03:05:19.530Z,14.80
2019-05-22T03:07:51.222Z,15.05
2019-05-22T03:10:22.423Z,15.34
2019-05-22T03:12:51.107Z,15.23
2019-05-22T03:15:23.651Z,15.15
2019-05-22T03:17:58.725Z,15.55
2019-05-22T03:20:28.462Z,14.91
2019-05-22T03:23:16.953Z,14.87
2019-05-22T03:25:45.845Z,14.83
2019-05-22T03:28:14.829Z,14.76
2019-05-22T03:30:46.250Z,15.17
2019-05-22T03:33:16.008Z,14.93
2019-05-22T03:35:46.784Z,14.85
2019-05-22T03:38:17.672Z,14.94
2019-05-22T03:40:48.204Z,14.90
2019-05-22T03:43:21.792Z,14.98
2019-05-22T03:45:51.383Z,15.22
2019-05-22T03:48:20.785Z,15.05
2019-05-22T03:50:51.356Z,14.78
2019-05-22T03:53:20.447Z,14.91
2019-05-22T03:55:49.083Z,14.79
2019-05-22T03:58:18.274Z,14.67
2019-05-22T04:00:51.699Z,14.73
2019-05-22T04:03:20.814Z,14.88
2019-05-22T04:05:51.223Z,15.08
2019-05-22T04:08:24.615Z,15.08
2019-05-22T04:11:04.647Z,14.94
2019-05-22T04:13:33.728Z,15.00
2019-05-22T04:16:05.901Z,15.32
2019-05-22T04:18:36.757Z,15.21
2019-05-22T04:21:05.658Z,14.99
2019-05-22T04:23:35.406Z,15.07
2019-05-22T04:26:08.137Z,15.22
2019-05-22T04:28:49.478Z,15.30
2019-05-22T04:31:18.955Z,15.24
2019-05-22T04:33:47.632Z,15.46
2019-05-22T04:36:17.654Z,15.81
2019-05-22T04:38:46.240Z,15.88
2019-05-22T04:41:16.649Z,16.25
2019-05-22T04:43:46.039Z,16.56
2019-05-22T04:46:14.738Z,16.93
2019-05-22T04:48:46.139Z,16.88
2019-05-22T04:51:40.163Z,16.74
2019-05-22T04:54:08.962Z,17.31
2019-05-22T04:56:38.051Z,17.35
2019-05-22T04:59:07.672Z,17.54
2019-05-22T05:01:36.723Z,17.65
2019-05-22T05:04:06.102Z,17.74
2019-05-22T05:06:37.103Z,17.52
2019-05-22T05:09:09.995Z,17.77
2019-05-22T05:11:39.906Z,17.98
2019-05-22T05:14:08.329Z,17.73
2019-05-22T05:16:37.405Z,17.76
2019-05-22T05:19:06.568Z,17.84
2019-05-22T05:21:37.406Z,17.98
2019-05-22T05:24:06.593Z,17.93
2019-05-22T05:26:37.097Z,18.23
2019-05-22T05:29:10.200Z,18.14
2019-05-22T05:31:39.622Z,18.38
2019-05-22T05:34:45.891Z,18.52
2019-05-22T05:37:17.274Z,18.38
2019-05-22T05:40:25.352Z,18.30
2019-05-22T05:42:54.341Z,18.70
2019-05-22T05:45:23.727Z,18.63
2019-05-22T05:47:52.641Z,18.82
2019-05-22T05:50:37.843Z,18.66
2019-05-22T05:52:54.139Z,18.61
2019-05-22T05:55:26.922Z,18.57
2019-05-22T05:58:27.042Z,18.76
2019-05-22T06:01:02.457Z,18.84
2019-05-22T06:03:38.640Z,18.69
2019-05-22T06:06:54.361Z,18.82
2019-05-22T06:09:25.383Z,18.82
2019-05-22T06:11:57.601Z,19.48
2019-05-22T06:14:29.963Z,19.33
2019-05-22T06:17:37.943Z,19.55
2019-05-22T06:20:11.079Z,19.23
2019-05-22T06:22:42.335Z,19.44
2019-05-22T06:25:13.694Z,19.52
2019-05-22T06:27:55.178Z,19.67
2019-05-22T06:30:46.497Z,19.41
2019-05-22T06:33:43.655Z,19.70
2019-05-22T06:36:15.958Z,20.08
2019-05-22T06:39:06.877Z,19.80
2019-05-22T06:41:37.984Z,20.16
2019-05-22T06:44:39.359Z,20.31
2019-05-22T06:47:13.080Z,20.08
2019-05-22T06:49:53.432Z,20.26
2019-05-22T06:52:22.331Z,20.42
2019-05-22T06:54:51.456Z,20.11
2019-05-22T06:57:38.443Z,20.24
2019-05-22T07:00:17.861Z,20.30
2019-05-22T07:02:46.401Z,20.76
2019-05-22T07:05:15.590Z,20.68
2019-05-22T07:07:44.585Z,20.67
2019-05-22T07:10:13.974Z,20.63
2019-05-22T07:12:43.082Z,20.62
2019-05-22T07:15:45.638Z,20.79
2019-05-22T07:18:17.178Z,20.66
2019-05-22T07:20:46.781Z,21.10
2019-05-22T07:23:18.274Z,21.09
2019-05-22T07:25:48.667Z,21.06
2019-05-22T07:28:19.733Z,21.07
2019-05-22T07:30:48.806Z,21.27
2019-05-22T07:33:19.043Z,21.21
2019-05-22T07:36:07.634Z,21.25
2019-05-22T07:38:19.921Z,21.35
2019-05-22T07:40:51.221Z,21.51
2019-05-22T07:43:22.473Z,21.69
2019-05-22T07:45:52.086Z,21.75
2019-05-22T07:48:24.361Z,21.77
2019-05-22T07:50:54.165Z,21.83
2019-05-22T07:53:24.596Z,22.03
2019-05-22T07:55:53.991Z,22.11
2019-05-22T07:58:23.259Z,22.15
2019-05-22T08:00:58.562Z,22.10
2019-05-22T08:03:29.637Z,22.21
2019-05-22T08:05:58.740Z,22.35
2019-05-22T08:08:31.226Z,22.40
2019-05-22T08:10:59.725Z,22.45
2019-05-22T08:13:29.682Z,22.52
2019-05-22T08:15:58.534Z,22.53
2019-05-22T08:18:29.782Z,22.41
2019-05-22T08:20:58.381Z,22.55
2019-05-22T08:23:28.798Z,22.61
2019-05-22T08:25:59.474Z,22.80
2019-05-22T08:28:31.110Z,22.77
2019-05-22T08:31:00.638Z,22.78
2019-05-22T08:33:31.072Z,22.71
2019-05-22T08:36:00.547Z,22.84
2019-05-22T08:38:32.091Z,22.90
2019-05-22T08:41:02.047Z,22.97
2019-05-22T08:43:52.375Z,23.05
2019-05-22T08:46:04.313Z,23.04
2019-05-22T08:52:23.424Z,23.20
2019-05-22T08:54:48.207Z,23.32
2019-05-22T08:57:19.657Z,23.37
2019-05-22T08:59:48.207Z,23.42
2019-05-22T09:02:17.256Z,23.36
2019-05-22T09:04:45.953Z,23.09
2019-05-22T09:07:14.633Z,23.02
2019-05-22T09:09:43.233Z,23.06
2019-05-22T09:12:12.350Z,23.34
2019-05-22T09:14:41.263Z,23.08
2019-05-22T09:17:10.860Z,23.21
2019-05-22T09:19:39.950Z,23.31
2019-05-22T09:22:09.129Z,23.29
2019-05-22T09:24:38.469Z,23.28
2019-05-22T09:27:08.471Z,23.23
2019-05-22T09:29:37.658Z,23.40
2019-05-22T09:32:07.630Z,23.51
2019-05-22T09:34:37.717Z,23.41
2019-05-22T09:37:07.005Z,23.42
2019-05-22T09:39:35.894Z,23.42
2019-05-22T09:42:04.577Z,23.50
2019-05-22T09:44:33.146Z,23.74
2019-05-22T09:47:01.877Z,23.59
2019-05-22T09:49:30.495Z,23.42
2019-05-22T09:51:59.795Z,23.48
2019-05-22T09:54:28.389Z,23.50
2019-05-22T09:56:56.984Z,23.49
2019-05-22T09:59:25.786Z,23.49
2019-05-22T10:01:54.549Z,23.47
2019-05-22T10:04:23.773Z,23.63
2019-05-22T10:06:52.569Z,23.77
2019-05-22T10:09:21.041Z,23.96
2019-05-22T10:11:49.944Z,24.09
2019-05-22T10:14:19.282Z,24.34
2019-05-22T10:16:48.181Z,24.44
2019-05-22T10:19:17.009Z,24.43
2019-05-22T10:21:47.561Z,24.25
2019-05-22T10:24:16.253Z,24.42
2019-05-22T10:26:44.998Z,24.34
2019-05-22T10:29:13.503Z,24.54
2019-05-22T10:31:42.211Z,24.59
2019-05-22T10:34:10.705Z,24.48
2019-05-22T10:36:42.877Z,24.39
2019-05-22T10:39:10.353Z,24.46
2019-05-22T10:41:39.335Z,24.40
2019-05-22T10:44:08.065Z,24.44
2019-05-22T10:46:37.240Z,24.53
2019-05-22T10:49:05.932Z,24.60
2019-05-22T10:51:34.403Z,24.81
2019-05-22T10:54:03.097Z,24.72
2019-05-22T10:56:32.185Z,24.83
2019-05-22T10:59:01.727Z,24.98
2019-05-22T11:01:32.889Z,24.83
2019-05-22T11:04:02.330Z,24.73
2019-05-22T11:06:30.887Z,24.79
2019-05-22T11:08:59.984Z,24.77
2019-05-22T11:11:28.864Z,24.89
2019-05-22T11:14:01.816Z,24.86
2019-05-22T11:16:30.825Z,24.67
2019-05-22T11:19:01.406Z,24.70
2019-05-22T11:21:31.021Z,24.96
2019-05-22T11:23:59.827Z,24.65
2019-05-22T11:26:28.907Z,24.58
2019-05-22T11:28:58.152Z,24.69
2019-05-22T11:31:26.950Z,24.59
2019-05-22T11:33:55.738Z,24.65
2019-05-22T11:36:24.530Z,24.69
2019-05-22T11:38:53.306Z,24.83
2019-05-22T11:41:22.010Z,24.75
2019-05-22T11:43:51.163Z,24.61
2019-05-22T11:46:20.251Z,24.84
2019-05-22T11:48:49.581Z,24.87
2019-05-22T11:51:20.678Z,24.92
2019-05-22T11:53:49.619Z,25.02
2019-05-22T11:56:18.998Z,24.94
2019-05-22T11:58:47.577Z,25.02
2019-05-22T12:01:16.857Z,24.98
2019-05-22T12:03:46.969Z,25.00
2019-05-22T12:06:15.977Z,24.80
2019-05-22T12:08:48.365Z,24.94
2019-05-22T12:11:19.050Z,24.86
2019-05-22T12:13:48.973Z,24.84
2019-05-22T12:16:19.381Z,24.91
2019-05-22T12:18:48.565Z,24.92
2019-05-22T12:21:17.235Z,24.96
2019-05-22T12:23:46.269Z,24.96
2019-05-22T12:26:15.035Z,25.04
2019-05-22T12:28:43.716Z,25.14
2019-05-22T12:31:13.260Z,25.16
2019-05-22T12:33:42.463Z,25.11
2019-05-22T12:36:13.492Z,25.07
2019-05-22T12:38:42.398Z,25.01
2019-05-22T12:41:13.512Z,25.14
2019-05-22T12:43:45.036Z,25.20
2019-05-22T12:46:14.400Z,25.15
2019-05-22T12:48:44.627Z,25.15
2019-05-22T12:51:14.623Z,25.22
2019-05-22T12:53:44.310Z,25.13
2019-05-22T12:56:13.628Z,25.11
2019-05-22T12:58:43.716Z,25.29
2019-05-22T13:01:13.193Z,25.39
2019-05-22T13:03:42.314Z,25.36
2019-05-22T13:06:11.524Z,25.26
2019-05-22T13:08:41.346Z,25.28
2019-05-22T13:11:10.532Z,25.34
2019-05-22T13:13:39.321Z,25.31
2019-05-22T13:16:09.342Z,25.27
2019-05-22T13:18:39.102Z,25.29
2019-05-22T13:21:11.646Z,25.36
2019-05-22T13:23:42.775Z,25.39
2019-05-22T13:26:11.470Z,25.36
2019-05-22T13:28:43.905Z,25.37
2019-05-22T13:31:13.668Z,25.34
2019-05-22T13:33:44.067Z,25.45
2019-05-22T13:36:13.808Z,25.38
2019-05-22T13:38:42.763Z,25.49
2019-05-22T13:41:11.875Z,25.47
2019-05-22T13:43:41.088Z,25.50
2019-05-22T13:46:10.157Z,25.55
2019-05-22T13:48:38.890Z,25.42
2019-05-22T13:51:07.991Z,25.54
2019-05-22T13:53:37.270Z,25.49
2019-05-22T13:56:06.886Z,25.56
2019-05-22T13:58:35.698Z,25.44
2019-05-22T14:01:05.028Z,25.50
2019-05-22T14:03:34.559Z,25.51
2019-05-22T14:06:03.516Z,25.44
2019-05-22T14:08:32.623Z,25.52
2019-05-22T14:11:02.360Z,25.34
2019-05-22T14:13:32.044Z,25.39
2019-05-22T14:16:00.841Z,25.37
2019-05-22T14:18:29.678Z,25.38
2019-05-22T14:21:01.456Z,25.43
2019-05-22T14:23:31.391Z,25.35
2019-05-22T14:26:00.756Z,25.37
2019-05-22T14:28:29.846Z,25.39
2019-05-22T14:30:58.571Z,25.41
2019-05-22T14:33:28.562Z,25.35
2019-05-22T14:35:58.254Z,25.41
2019-05-22T14:38:27.859Z,25.40
2019-05-22T14:40:56.967Z,25.39
2019-05-22T14:43:26.284Z,25.50
2019-05-22T14:45:55.091Z,25.53
2019-05-22T14:48:23.824Z,25.43
2019-05-22T14:50:53.084Z,25.54
2019-05-22T14:53:21.702Z,25.49
2019-05-22T14:55:51.724Z,25.27
2019-05-22T14:58:21.419Z,25.30
2019-05-22T15:00:52.467Z,25.45
2019-05-22T15:03:21.697Z,25.36
2019-05-22T15:05:51.200Z,25.37
2019-05-22T15:08:20.110Z,25.39
2019-05-22T15:10:49.708Z,25.28
2019-05-22T15:13:18.637Z,25.42
2019-05-22T15:15:47.307Z,25.41
2019-05-22T15:18:16.335Z,25.42
2019-05-22T15:21:00.686Z,25.54
2019-05-22T15:23:31.885Z,25.47
2019-05-22T15:26:01.788Z,25.38
2019-05-22T15:28:31.794Z,25.31
2019-05-22T15:31:01.327Z,25.43
2019-05-22T15:33:30.655Z,25.41
2019-05-22T15:35:59.463Z,25.36
2019-05-22T15:38:29.506Z,25.33
2019-05-22T15:40:58.126Z,25.34
2019-05-22T15:43:28.053Z,25.42
2019-05-22T15:45:57.938Z,25.23
2019-05-22T15:48:30.912Z,25.15
2019-05-22T15:51:07.093Z,25.25
2019-05-22T15:53:38.019Z,25.11
2019-05-22T15:56:09.774Z,25.28
2019-05-22T15:58:44.208Z,25.30
2019-05-22T16:01:16.261Z,25.15
2019-05-22T16:03:47.628Z,25.10
2019-05-22T16:06:16.393Z,25.16
2019-05-22T16:08:46.453Z,25.18
2019-05-22T16:11:16.249Z,25.24
2019-05-22T16:13:46.690Z,25.27
2019-05-22T16:16:16.092Z,25.25
2019-05-22T16:18:48.308Z,25.17
2019-05-22T16:21:18.703Z,25.13
2019-05-22T16:23:47.802Z,25.10
2019-05-22T16:26:17.704Z,25.10
2019-05-22T16:28:48.033Z,24.82
2019-05-22T16:31:18.771Z,24.95
2019-05-22T16:33:49.648Z,25.06
2019-05-22T16:36:20.406Z,25.04
2019-05-22T16:38:49.280Z,25.06
2019-05-22T16:41:18.802Z,25.12
2019-05-22T16:43:50.551Z,24.95
2019-05-22T16:46:21.799Z,24.90
2019-05-22T16:48:51.983Z,24.74
2019-05-22T16:51:21.977Z,24.90
2019-05-22T16:53:56.352Z,24.82
2019-05-22T16:56:25.734Z,24.85
2019-05-22T16:58:55.216Z,24.81
2019-05-22T17:01:25.870Z,24.74
2019-05-22T17:03:57.803Z,24.61
2019-05-22T17:06:27.979Z,24.71
2019-05-22T17:08:58.489Z,24.73
2019-05-22T17:11:29.075Z,24.47
2019-05-22T17:14:00.862Z,24.42
2019-05-22T17:16:33.803Z,24.40
2019-05-22T17:19:03.210Z,24.50
2019-05-22T17:21:32.714Z,24.40
2019-05-22T17:24:01.942Z,24.48
2019-05-22T17:26:31.022Z,24.13
2019-05-22T17:29:00.248Z,24.24
2019-05-22T17:31:29.259Z,24.25
2019-05-22T17:33:58.793Z,24.18
2019-05-22T17:36:28.382Z,24.17
2019-05-22T17:38:58.148Z,24.14
2019-05-22T17:41:28.729Z,24.03
2019-05-22T17:43:59.748Z,24.07
2019-05-22T17:46:30.866Z,24.08
2019-05-22T17:49:00.163Z,24.15
2019-05-22T17:51:29.774Z,24.08
2019-05-22T17:53:59.074Z,23.75
2019-05-22T17:56:28.572Z,23.89
2019-05-22T17:58:57.293Z,24.10
2019-05-22T18:01:27.107Z,24.00
2019-05-22T18:03:56.090Z,23.97
2019-05-22T18:06:24.706Z,23.74
2019-05-22T18:08:53.616Z,23.75
2019-05-22T18:11:22.587Z,23.68
2019-05-22T18:13:59.179Z,23.59
2019-05-22T18:16:28.475Z,23.76
2019-05-22T18:18:57.535Z,23.60
2019-05-22T18:21:26.529Z,23.68
2019-05-22T18:23:56.316Z,23.73
2019-05-22T18:26:26.305Z,23.78
2019-05-22T18:28:55.223Z,23.71
2019-05-22T18:31:23.948Z,23.58
2019-05-22T18:33:52.660Z,23.58
2019-05-22T18:36:21.350Z,23.63
2019-05-22T18:38:49.897Z,23.58
2019-05-22T18:41:18.588Z,23.27
2019-05-22T18:43:47.270Z,23.12
2019-05-22T18:46:15.963Z,23.12
2019-05-22T18:48:48.091Z,23.40
2019-05-22T18:51:16.066Z,23.24
2019-05-22T18:53:45.298Z,23.21
2019-05-22T18:56:14.179Z,23.32
2019-05-22T18:58:42.986Z,23.22
2019-05-22T19:01:16.211Z,23.09
2019-05-22T19:03:43.575Z,22.80
2019-05-22T19:06:12.483Z,23.07
2019-05-22T19:08:41.100Z,23.03
2019-05-22T19:11:09.766Z,22.91
2019-05-22T19:13:38.880Z,22.71
2019-05-22T19:16:07.969Z,22.92
2019-05-22T19:18:36.876Z,22.99
2019-05-22T19:21:05.439Z,22.82
2019-05-22T19:23:34.137Z,22.66
2019-05-22T19:26:05.643Z,22.52
2019-05-22T19:28:43.641Z,22.89
2019-05-22T19:31:04.668Z,22.86
2019-05-22T19:33:33.352Z,22.63
2019-05-22T19:36:02.051Z,23.01
2019-05-22T19:38:31.042Z,22.83
2019-05-22T19:41:00.126Z,22.82
2019-05-22T19:43:28.818Z,22.48
2019-05-22T19:45:57.936Z,22.63
2019-05-22T19:48:27.627Z,22.74
2019-05-22T19:50:56.573Z,22.78
2019-05-22T19:53:26.264Z,22.86
2019-05-22T19:55:55.356Z,22.65
2019-05-22T19:58:24.733Z,22.87
2019-05-22T20:00:53.427Z,22.74
2019-05-22T20:03:23.313Z,22.38
2019-05-22T20:05:52.104Z,22.53
2019-05-22T20:08:20.833Z,22.08
2019-05-22T20:10:50.845Z,22.09
2019-05-22T20:13:21.427Z,22.34
2019-05-22T20:15:50.013Z,22.15
2019-05-22T20:18:19.374Z,22.15
2019-05-22T20:20:48.561Z,22.28
2019-05-22T20:23:17.355Z,22.17
2019-05-22T20:25:45.961Z,21.83
2019-05-22T20:28:15.450Z,21.94
2019-05-22T20:30:44.225Z,22.18
2019-05-22T20:33:12.921Z,21.97
2019-05-22T20:35:41.909Z,21.79
2019-05-22T20:38:10.753Z,21.64
2019-05-22T20:40:40.023Z,21.67
2019-05-22T20:43:10.105Z,21.82
2019-05-22T20:45:42.246Z,21.88
2019-05-22T20:48:16.738Z,21.93
2019-05-22T20:50:45.473Z,21.48
2019-05-22T20:53:15.565Z,21.63
2019-05-22T20:55:46.001Z,21.46
2019-05-22T20:58:16.484Z,21.26
2019-05-22T21:00:46.465Z,21.50
2019-05-22T21:03:15.362Z,21.03
2019-05-22T21:05:44.232Z,21.30
2019-05-22T21:08:15.039Z,21.21
2019-05-22T21:10:47.544Z,21.19
2019-05-22T21:13:18.027Z,21.30
2019-05-22T21:15:47.405Z,21.22
2019-05-22T21:18:19.496Z,20.79
2019-05-22T21:20:54.675Z,21.15
2019-05-22T21:23:19.804Z,20.77
2019-05-22T21:25:50.414Z,20.97
2019-05-22T21:28:18.892Z,20.91
2019-05-22T21:30:48.789Z,20.51
2019-05-22T21:33:17.842Z,20.43
2019-05-22T21:35:46.922Z,21.03
2019-05-22T21:38:15.724Z,21.05
2019-05-22T21:40:44.780Z,20.81
2019-05-22T21:43:14.692Z,20.46
2019-05-22T21:45:43.698Z,20.75
2019-05-22T21:48:13.283Z,20.96
2019-05-22T21:50:42.467Z,20.91
2019-05-22T21:53:13.214Z,20.86
2019-05-22T21:55:45.519Z,20.87
2019-05-22T21:58:13.087Z,20.89
2019-05-22T22:01:03.665Z,20.70
2019-05-22T22:03:38.018Z,20.38
2019-05-22T22:06:08.825Z,20.20
2019-05-22T22:08:37.401Z,20.11
2019-05-22T22:11:07.000Z,20.29
2019-05-22T22:13:36.626Z,20.52
2019-05-22T22:16:07.124Z,20.58
2019-05-22T22:18:38.030Z,20.34
2019-05-22T22:21:07.368Z,20.26
2019-05-22T22:23:36.759Z,20.09
2019-05-22T22:26:20.374Z,20.25
2019-05-22T22:28:37.689Z,20.58
2019-05-22T22:31:08.472Z,20.29
2019-05-22T22:33:39.046Z,20.40
2019-05-22T22:36:09.267Z,20.39
2019-05-22T22:38:39.146Z,20.33
2019-05-22T22:41:09.384Z,19.91
2019-05-22T22:43:39.191Z,19.90
2019-05-22T22:46:22.363Z,20.10
2019-05-22T22:48:52.673Z,20.02
2019-05-22T22:51:22.045Z,20.27
2019-05-22T22:53:51.153Z,20.33
2019-05-22T22:56:20.277Z,19.85
2019-05-22T22:58:48.938Z,19.93
2019-05-22T23:01:23.092Z,19.87
2019-05-22T23:03:53.888Z,19.48
2019-05-22T23:06:22.972Z,19.67
2019-05-22T23:08:51.723Z,20.01
2019-05-22T23:11:21.840Z,19.89
2019-05-22T23:13:50.410Z,19.41
2019-05-22T23:16:20.610Z,19.58
2019-05-22T23:19:31.503Z,19.54
2019-05-22T23:22:00.830Z,19.57
2019-05-22T23:24:30.720Z,19.42
2019-05-22T23:27:00.426Z,19.44
2019-05-22T23:29:30.221Z,19.39
2019-05-22T23:32:00.769Z,19.40
2019-05-22T23:34:30.158Z,19.22
2019-05-22T23:36:59.972Z,19.38
2019-05-22T23:39:30.150Z,19.48
2019-05-22T23:42:04.102Z,19.51
2019-05-22T23:44:35.319Z,19.53
2019-05-22T23:47:04.802Z,19.38
2019-05-22T23:49:34.307Z,19.78
2019-05-22T23:52:03.769Z,19.57
2019-05-22T23:54:33.260Z,19.42
2019-05-22T23:57:02.630Z,19.36
2019-05-22T23:59:33.255Z,19.38
